Rush City Rgnl Information

FAA: ROS - ICAO: KROS

Rush City Rgnl (Airport) Location

State Minnesota
County Chisago
City Rush City
Rush City Rgnl (Airport) is 1 mile northeast of Rush City, MN.
Latitude 45-41-49.7550N
Longitude 092-57-07.8320W
Elevation 926ft

Rush City Rgnl METARs

METAR KROS 190855Z AUTO 00000KT 10SM SCT110 08/06 A2964 RMK AO2 T00810063
Altimeter 29.64"
Temperature 8.1°C (46.6°F)
Wind 0° at 0KT
Clouds scattered at 11,000ft
Visibility 10.0mi
Time observed: 2022-05-19T08:55:00Z

Rush City Rgnl (Airport) Details

Status Operational
Activation December 1961
Ownership Public
Usage Public
Chart GREEN BAY
ATC on-site No
Beacon schedule sunset-sunrise
Beacon color clear green

Rush City Rgnl (Airport) Contacts

Owner CITY OF RUSH CITY
Owner address BOX 556, RUSH CITY, MN 55069
Owner phone 612-358-4744
Manager MATT SWEDRA
Manager address 108 - 2ND STREET SW, BOX 37, RED LAKE FALLS, MN 56750
Manager phone (218) 230-5410

Rush City Rgnl Radio Frequencies

Rush City Rgnl (Airport) Radio Frequencies

UNICOM N/A
Common traffic advisory frequency (CTAF) 122.9